Time;durP1;ratioP1;P1;durP2;ratioP2;P2;SDS_P1;SDS_P2;PMS_P1;PMS_P2;Temp;Humidity;BMP_temperature;BMP_pressure;BME280_temperature;BME280_humidity;BME280_pressure;Samples;Min_cycle;Max_cycle;Signal;HPM_P1;HPM_P2
2022/11/14 00:00:34;;;;;;;46.03;27.33;;;;;;;;;;5073548;28;20205;-66
2022/11/14 00:03:02;;;;;;;51.15;28.83;;;;;;;;;;5074085;28;20224;-66
2022/11/14 00:05:29;;;;;;;47.38;27.98;;;;;;;;;;5074080;28;20205;-66
2022/11/14 00:07:58;;;;;;;51.33;28.30;;;;;;;;;;5073376;28;20251;-66
2022/11/14 00:10:25;;;;;;;49.60;27.38;;;;;;;;;;5073879;28;20197;-64
2022/11/14 00:12:52;;;;;;;46.70;27.85;;;;;;;;;;5074895;28;20749;-66
2022/11/14 00:15:19;;;;;;;52.90;31.52;;;;;;;;;;5074873;28;20225;-65
2022/11/14 00:17:46;;;;;;;55.60;28.33;;;;;;;;;;5073640;28;20211;-65
2022/11/14 00:20:13;;;;;;;48.97;28.35;;;;;;;;;;5073160;28;20722;-65
2022/11/14 00:22:40;;;;;;;50.63;30.15;;;;;;;;;;5074451;28;20598;-66
2022/11/14 00:25:10;;;;;;;45.60;28.48;;;;;;;;;;5075245;28;20209;-65
2022/11/14 00:27:37;;;;;;;50.63;29.38;;;;;;;;;;5083930;28;20209;-66
2022/11/14 00:30:04;;;;;;;49.95;27.40;;;;;;;;;;5084570;28;20706;-66
2022/11/14 00:32:32;;;;;;;47.83;28.20;;;;;;;;;;5079445;28;20221;-66
2022/11/14 00:34:59;;;;;;;40.58;25.92;;;;;;;;;;5077916;28;20581;-66
2022/11/14 00:37:26;;;;;;;42.13;25.10;;;;;;;;;;5077550;28;20201;-67
2022/11/14 00:39:53;;;;;;;44.45;26.02;;;;;;;;;;5078430;28;20216;-67
2022/11/14 00:42:21;;;;;;;47.95;26.85;;;;;;;;;;5079024;28;20207;-65
2022/11/14 00:44:49;;;;;;;49.83;28.92;;;;;;;;;;5077827;28;20223;-65
2022/11/14 00:47:16;;;;;;;47.28;25.90;;;;;;;;;;5077064;28;20669;-66
2022/11/14 00:49:43;;;;;;;51.47;28.92;;;;;;;;;;5079120;28;20221;-66
2022/11/14 00:52:10;;;;;;;46.60;27.75;;;;;;;;;;5078954;28;20213;-66
2022/11/14 00:54:37;;;;;;;44.20;27.73;;;;;;;;;;5081419;28;20612;-66
2022/11/14 00:57:04;;;;;;;48.00;27.85;;;;;;;;;;5080940;28;20269;-65
2022/11/14 00:59:32;;;;;;;49.83;28.17;;;;;;;;;;5081446;28;20205;-65
2022/11/14 01:02:00;;;;;;;51.83;28.88;;;;;;;;;;5081005;28;20208;-65
2022/11/14 01:04:28;;;;;;;50.25;28.45;;;;;;;;;;5079131;28;20239;-65
2022/11/14 01:06:55;;;;;;;46.42;28.27;;;;;;;;;;5081421;28;20201;-66
2022/11/14 01:09:22;;;;;;;50.60;28.90;;;;;;;;;;5082637;28;20204;-66
2022/11/14 01:11:50;;;;;;;50.28;27.35;;;;;;;;;;5081384;28;20575;-66
2022/11/14 01:14:17;;;;;;;46.50;28.75;;;;;;;;;;5082326;28;20264;-66
2022/11/14 01:16:45;;;;;;;46.90;28.80;;;;;;;;;;5081111;28;20673;-66
2022/11/14 01:19:12;;;;;;;47.25;29.50;;;;;;;;;;5077786;28;20684;-66
2022/11/14 01:21:40;;;;;;;41.70;29.15;;;;;;;;;;5077430;28;20201;-66
2022/11/14 01:24:07;;;;;;;46.28;27.08;;;;;;;;;;5078672;28;20246;-67
2022/11/14 01:26:34;;;;;;;44.20;26.88;;;;;;;;;;5076971;28;20197;-66
2022/11/14 01:29:01;;;;;;;43.60;27.73;;;;;;;;;;5076155;28;20228;-67
2022/11/14 01:31:28;;;;;;;48.05;28.55;;;;;;;;;;5076706;28;20197;-66
2022/11/14 01:33:57;;;;;;;43.47;29.13;;;;;;;;;;5078379;28;20703;-65
2022/11/14 01:36:24;;;;;;;45.42;28.45;;;;;;;;;;5077840;28;20225;-66
2022/11/14 01:38:54;;;;;;;42.05;26.00;;;;;;;;;;5076656;28;20211;-65
2022/11/14 01:41:22;;;;;;;42.33;26.80;;;;;;;;;;5077450;28;20592;-65
2022/11/14 01:43:49;;;;;;;43.00;26.80;;;;;;;;;;5076409;28;20229;-65
2022/11/14 01:46:20;;;;;;;39.65;24.13;;;;;;;;;;5077982;28;20200;-66
2022/11/14 01:48:50;;;;;;;36.60;24.50;;;;;;;;;;5092273;28;20190;-67
2022/11/14 01:51:24;;;;;;;37.90;25.52;;;;;;;;;;5093543;28;20264;-66
2022/11/14 01:53:53;;;;;;;35.50;25.05;;;;;;;;;;5091471;28;20300;-66
2022/11/14 01:56:23;;;;;;;38.75;24.35;;;;;;;;;;5088063;28;20228;-67
2022/11/14 01:58:52;;;;;;;43.05;26.35;;;;;;;;;;5090914;28;20264;-66
2022/11/14 02:01:20;;;;;;;44.10;27.15;;;;;;;;;;5091924;28;20205;-66
2022/11/14 02:03:50;;;;;;;40.00;25.02;;;;;;;;;;5085579;28;20221;-66
2022/11/14 02:06:20;;;;;;;41.72;26.25;;;;;;;;;;5082139;28;20181;-67
2022/11/14 02:08:48;;;;;;;43.78;26.00;;;;;;;;;;5077180;28;20197;-66
2022/11/14 02:11:16;;;;;;;40.15;24.85;;;;;;;;;;5075269;28;20211;-67
2022/11/14 02:13:43;;;;;;;41.25;25.38;;;;;;;;;;5074810;28;20726;-67
2022/11/14 02:16:10;;;;;;;36.67;24.77;;;;;;;;;;5075091;28;20225;-66
2022/11/14 02:18:37;;;;;;;39.28;24.98;;;;;;;;;;5075079;28;20595;-67
2022/11/14 02:21:06;;;;;;;35.70;24.73;;;;;;;;;;5074511;28;20691;-66
2022/11/14 02:23:33;;;;;;;43.53;26.25;;;;;;;;;;5074664;28;20235;-66
2022/11/14 02:26:00;;;;;;;43.47;27.30;;;;;;;;;;5074669;28;20666;-66
2022/11/14 02:28:27;;;;;;;43.15;27.35;;;;;;;;;;5075091;28;20664;-67
2022/11/14 02:30:55;;;;;;;39.95;25.90;;;;;;;;;;5074858;28;20572;-65
2022/11/14 02:33:22;;;;;;;40.40;27.38;;;;;;;;;;5074755;28;20327;-65
2022/11/14 02:35:49;;;;;;;38.65;25.25;;;;;;;;;;5075207;28;20220;-65
2022/11/14 02:38:17;;;;;;;39.38;25.80;;;;;;;;;;5074588;28;20572;-64
2022/11/14 02:40:45;;;;;;;42.55;26.83;;;;;;;;;;5075117;28;20211;-65
2022/11/14 02:43:12;;;;;;;42.90;26.30;;;;;;;;;;5074076;28;20570;-66
2022/11/14 02:45:39;;;;;;;40.58;26.77;;;;;;;;;;5074700;28;20300;-66
2022/11/14 02:48:06;;;;;;;37.50;24.67;;;;;;;;;;5074657;28;20211;-66
2022/11/14 02:50:33;;;;;;;44.65;26.33;;;;;;;;;;5073571;28;20242;-66
2022/11/14 02:53:00;;;;;;;40.88;24.92;;;;;;;;;;5074331;28;20267;-66
2022/11/14 02:55:29;;;;;;;42.67;27.77;;;;;;;;;;5074460;28;20584;-66
2022/11/14 02:57:56;;;;;;;37.83;25.25;;;;;;;;;;5074326;28;20677;-66
2022/11/14 03:00:23;;;;;;;38.83;26.83;;;;;;;;;;5074442;28;20201;-65
2022/11/14 03:02:51;;;;;;;42.70;26.35;;;;;;;;;;5074618;28;20598;-66
2022/11/14 03:05:18;;;;;;;37.92;24.83;;;;;;;;;;5074163;28;20296;-67
2022/11/14 03:07:45;;;;;;;32.15;23.08;;;;;;;;;;5073693;28;20554;-66
2022/11/14 03:10:12;;;;;;;40.17;24.40;;;;;;;;;;5074144;28;20201;-66
2022/11/14 03:12:41;;;;;;;37.65;25.88;;;;;;;;;;5073990;28;20217;-67
2022/11/14 03:15:08;;;;;;;40.38;26.38;;;;;;;;;;5074461;28;20225;-65
2022/11/14 03:17:35;;;;;;;36.05;23.83;;;;;;;;;;5074144;28;20561;-65
2022/11/14 03:20:03;;;;;;;45.30;24.92;;;;;;;;;;5075687;28;20205;-65
2022/11/14 03:22:30;;;;;;;40.25;26.35;;;;;;;;;;5074793;28;20564;-64
2022/11/14 03:24:57;;;;;;;42.53;24.00;;;;;;;;;;5074423;28;20625;-66
2022/11/14 03:27:24;;;;;;;40.85;26.70;;;;;;;;;;5074129;28;20580;-65
2022/11/14 03:29:53;;;;;;;40.70;25.70;;;;;;;;;;5073808;28;20211;-66
2022/11/14 03:32:20;;;;;;;39.63;25.65;;;;;;;;;;5073807;28;20211;-65
2022/11/14 03:34:47;;;;;;;45.85;28.63;;;;;;;;;;5074299;28;20205;-65
2022/11/14 03:37:14;;;;;;;41.53;26.40;;;;;;;;;;5075643;28;20751;-65
2022/11/14 03:39:41;;;;;;;38.55;24.48;;;;;;;;;;5076611;28;20232;-65
2022/11/14 03:42:09;;;;;;;43.75;25.98;;;;;;;;;;5074904;28;20521;-65
2022/11/14 03:44:36;;;;;;;43.38;26.38;;;;;;;;;;5075054;28;20232;-65
2022/11/14 03:47:04;;;;;;;40.63;25.30;;;;;;;;;;5074044;28;20197;-65
2022/11/14 03:49:31;;;;;;;41.15;25.48;;;;;;;;;;5074297;28;20289;-66
2022/11/14 03:51:58;;;;;;;44.75;25.35;;;;;;;;;;5074406;28;20201;-65
2022/11/14 03:54:25;;;;;;;43.63;26.88;;;;;;;;;;5074378;28;20217;-67
2022/11/14 03:56:52;;;;;;;41.88;24.40;;;;;;;;;;5079435;28;20224;-67
2022/11/14 03:59:20;;;;;;;42.38;25.98;;;;;;;;;;5076518;28;20691;-66
2022/11/14 04:01:47;;;;;;;41.60;24.23;;;;;;;;;;5075012;28;20255;-66
2022/11/14 04:04:16;;;;;;;40.10;24.95;;;;;;;;;;5075549;28;20595;-66
2022/11/14 04:06:43;;;;;;;39.92;25.27;;;;;;;;;;5074715;28;20197;-66
2022/11/14 04:10:34;;;;;;;41.17;23.77;;;;;;;;;;5112102;27;1279790;-65
2022/11/14 04:13:01;;;;;;;41.67;25.35;;;;;;;;;;5131675;28;20260;-66
2022/11/14 04:15:28;;;;;;;40.33;24.48;;;;;;;;;;5131795;28;20199;-66
2022/11/14 04:17:55;;;;;;;35.90;22.70;;;;;;;;;;5131178;28;20563;-66
2022/11/14 04:20:22;;;;;;;48.35;25.77;;;;;;;;;;5131970;28;20286;-67
2022/11/14 04:22:49;;;;;;;46.78;27.80;;;;;;;;;;5131927;28;20215;-66
2022/11/14 04:25:17;;;;;;;42.33;23.90;;;;;;;;;;5121112;22;20228;-66
2022/11/14 04:27:45;;;;;;;44.30;24.83;;;;;;;;;;5090210;28;20203;-65
2022/11/14 04:30:12;;;;;;;42.28;24.95;;;;;;;;;;5090363;28;20590;-66
2022/11/14 04:32:40;;;;;;;48.05;24.58;;;;;;;;;;5089939;28;20196;-65
2022/11/14 04:35:07;;;;;;;44.53;26.55;;;;;;;;;;5090355;28;20251;-67
2022/11/14 04:37:34;;;;;;;35.85;23.92;;;;;;;;;;5089844;28;20204;-66
2022/11/14 04:40:02;;;;;;;48.28;27.40;;;;;;;;;;5090069;28;20291;-65
2022/11/14 04:42:29;;;;;;;42.42;26.20;;;;;;;;;;5096880;28;20200;-66
2022/11/14 04:44:57;;;;;;;44.38;26.00;;;;;;;;;;5092465;28;20226;-63
2022/11/14 04:47:24;;;;;;;46.42;26.98;;;;;;;;;;5089681;28;20647;-65
2022/11/14 04:49:52;;;;;;;41.13;26.77;;;;;;;;;;5089781;28;20230;-64
2022/11/14 04:52:19;;;;;;;43.92;25.73;;;;;;;;;;5089474;28;20687;-64
2022/11/14 04:54:46;;;;;;;46.05;27.90;;;;;;;;;;5090050;28;20246;-64
2022/11/14 04:57:13;;;;;;;46.30;26.20;;;;;;;;;;5089826;28;20278;-64
2022/11/14 04:59:40;;;;;;;45.42;26.23;;;;;;;;;;5089595;28;20193;-64
2022/11/14 05:02:09;;;;;;;45.13;25.88;;;;;;;;;;5089400;28;20205;-65
2022/11/14 05:04:36;;;;;;;45.22;26.15;;;;;;;;;;5089572;28;20226;-63
2022/11/14 05:07:03;;;;;;;49.38;29.27;;;;;;;;;;5089494;28;20205;-66
2022/11/14 05:09:30;;;;;;;48.35;26.33;;;;;;;;;;5089674;28;20267;-64
2022/11/14 05:11:57;;;;;;;43.00;25.83;;;;;;;;;;5089472;28;20208;-65
2022/11/14 05:14:24;;;;;;;44.22;26.50;;;;;;;;;;5089640;28;20224;-64
2022/11/14 05:16:51;;;;;;;49.10;25.95;;;;;;;;;;5089743;28;20288;-62
2022/11/14 05:19:20;;;;;;;45.05;24.48;;;;;;;;;;5089920;28;20228;-63
2022/11/14 05:21:47;;;;;;;43.22;26.60;;;;;;;;;;5077042;28;20237;-64
2022/11/14 05:24:14;;;;;;;42.15;26.10;;;;;;;;;;5075731;28;20265;-64
2022/11/14 05:26:41;;;;;;;44.80;25.95;;;;;;;;;;5076292;28;20205;-63
2022/11/14 05:29:08;;;;;;;46.63;26.50;;;;;;;;;;5075939;28;20213;-64
2022/11/14 05:31:35;;;;;;;45.38;25.38;;;;;;;;;;5075521;28;20205;-64
2022/11/14 05:34:03;;;;;;;47.10;27.20;;;;;;;;;;5075777;28;20224;-65
2022/11/14 05:36:31;;;;;;;39.00;23.95;;;;;;;;;;5076122;28;20212;-64
2022/11/14 05:38:58;;;;;;;40.90;23.98;;;;;;;;;;5075564;28;20201;-63
2022/11/14 05:41:25;;;;;;;42.67;25.10;;;;;;;;;;5075612;28;20201;-63
2022/11/14 05:43:53;;;;;;;45.17;26.08;;;;;;;;;;5075011;28;20228;-63
2022/11/14 05:46:20;;;;;;;41.50;26.27;;;;;;;;;;5075246;28;20201;-63
2022/11/14 05:48:47;;;;;;;43.30;27.27;;;;;;;;;;5074428;28;20630;-63
2022/11/14 05:51:14;;;;;;;43.70;26.77;;;;;;;;;;5075241;28;20201;-64
2022/11/14 05:53:42;;;;;;;44.60;27.65;;;;;;;;;;5075295;28;20258;-63
2022/11/14 05:56:11;;;;;;;42.13;25.92;;;;;;;;;;5075278;28;20676;-64
2022/11/14 05:58:38;;;;;;;49.72;28.50;;;;;;;;;;5075429;28;20205;-63
2022/11/14 06:01:06;;;;;;;48.92;29.52;;;;;;;;;;5075553;28;20205;-63
2022/11/14 06:03:34;;;;;;;50.75;27.65;;;;;;;;;;5075171;28;20201;-63
2022/11/14 06:06:02;;;;;;;50.85;27.75;;;;;;;;;;5074873;28;20690;-65
2022/11/14 06:08:29;;;;;;;58.60;28.88;;;;;;;;;;5075850;28;20247;-64
2022/11/14 06:11:01;;;;;;;46.35;28.58;;;;;;;;;;5075536;28;20224;-63
2022/11/14 06:13:29;;;;;;;45.25;28.00;;;;;;;;;;5075693;28;20191;-62
2022/11/14 06:15:58;;;;;;;47.42;27.60;;;;;;;;;;5075281;28;20302;-64
2022/11/14 06:18:26;;;;;;;52.38;28.50;;;;;;;;;;5074969;28;20287;-64
2022/11/14 06:20:53;;;;;;;49.53;27.85;;;;;;;;;;5075211;28;20289;-63
2022/11/14 06:23:20;;;;;;;49.90;27.58;;;;;;;;;;5074597;28;20209;-63
2022/11/14 06:25:47;;;;;;;46.65;26.38;;;;;;;;;;5075285;28;20204;-64
2022/11/14 06:28:15;;;;;;;46.60;26.85;;;;;;;;;;5074562;28;20232;-64
2022/11/14 06:30:42;;;;;;;48.55;27.27;;;;;;;;;;5073899;28;20216;-63
2022/11/14 06:33:12;;;;;;;42.25;24.95;;;;;;;;;;5073314;28;20586;-63
2022/11/14 06:35:39;;;;;;;48.10;25.65;;;;;;;;;;5073972;28;20752;-64
2022/11/14 06:38:07;;;;;;;45.17;26.40;;;;;;;;;;5074542;28;20200;-63
2022/11/14 06:40:34;;;;;;;47.03;26.20;;;;;;;;;;5074548;28;20269;-64
2022/11/14 06:43:01;;;;;;;52.80;28.88;;;;;;;;;;5074531;28;20694;-64
2022/11/14 06:45:29;;;;;;;47.47;25.95;;;;;;;;;;5074521;28;20228;-64
2022/11/14 06:47:59;;;;;;;44.72;25.30;;;;;;;;;;5074151;28;20231;-63
2022/11/14 06:50:26;;;;;;;43.25;25.17;;;;;;;;;;5073920;28;20243;-62
2022/11/14 06:52:53;;;;;;;37.70;24.20;;;;;;;;;;5074038;28;20203;-62
2022/11/14 06:55:20;;;;;;;42.92;25.65;;;;;;;;;;5073736;28;20708;-65
2022/11/14 06:57:53;;;;;;;42.42;24.77;;;;;;;;;;5073817;28;20201;-62
2022/11/14 07:00:20;;;;;;;39.55;25.92;;;;;;;;;;5074807;28;20200;-65
2022/11/14 07:02:49;;;;;;;47.30;25.80;;;;;;;;;;5073890;28;20203;-64
2022/11/14 07:05:16;;;;;;;44.33;25.77;;;;;;;;;;5073904;28;20227;-66
2022/11/14 07:07:43;;;;;;;43.42;25.88;;;;;;;;;;5073899;28;20208;-63
2022/11/14 07:10:11;;;;;;;43.53;24.88;;;;;;;;;;5073442;28;20278;-64
2022/11/14 07:12:38;;;;;;;47.13;25.27;;;;;;;;;;5074179;28;20201;-63
2022/11/14 07:15:05;;;;;;;45.28;26.25;;;;;;;;;;5075272;28;20227;-63
2022/11/14 07:17:35;;;;;;;43.08;26.67;;;;;;;;;;5074324;28;20211;-63
2022/11/14 07:20:03;;;;;;;42.25;25.40;;;;;;;;;;5075342;28;20200;-63
2022/11/14 07:22:31;;;;;;;43.67;25.77;;;;;;;;;;5075313;28;20617;-64
2022/11/14 07:24:58;;;;;;;46.17;27.55;;;;;;;;;;5074933;28;20231;-64
2022/11/14 07:27:25;;;;;;;41.90;27.15;;;;;;;;;;5075111;28;20205;-62
2022/11/14 07:29:52;;;;;;;49.75;26.50;;;;;;;;;;5074810;28;20220;-64
2022/11/14 07:32:19;;;;;;;40.95;25.27;;;;;;;;;;5075200;28;20661;-66
2022/11/14 07:34:46;;;;;;;48.60;26.92;;;;;;;;;;5074572;28;20227;-65
2022/11/14 07:37:14;;;;;;;47.25;28.52;;;;;;;;;;5073494;28;20197;-64
2022/11/14 07:39:42;;;;;;;43.72;25.17;;;;;;;;;;5073605;28;20197;-65
2022/11/14 07:42:09;;;;;;;42.08;26.25;;;;;;;;;;5072758;28;20288;-65
2022/11/14 07:44:36;;;;;;;40.05;25.88;;;;;;;;;;5072454;28;20244;-67
2022/11/14 07:47:03;;;;;;;41.80;24.52;;;;;;;;;;5071597;28;20201;-65
2022/11/14 07:49:30;;;;;;;39.80;23.20;;;;;;;;;;5072419;28;20224;-64
2022/11/14 07:51:57;;;;;;;42.17;22.98;;;;;;;;;;5073046;28;20217;-66
2022/11/14 07:54:26;;;;;;;40.80;24.70;;;;;;;;;;5072812;28;20221;-66
2022/11/14 07:56:53;;;;;;;48.78;27.60;;;;;;;;;;5072679;28;20772;-65
2022/11/14 07:59:20;;;;;;;38.90;25.13;;;;;;;;;;5073230;28;20201;-67
2022/11/14 08:01:47;;;;;;;36.03;22.73;;;;;;;;;;5073308;28;20643;-66
2022/11/14 08:04:14;;;;;;;38.78;23.83;;;;;;;;;;5073152;28;20221;-65
2022/11/14 08:06:41;;;;;;;43.60;24.10;;;;;;;;;;5073409;28;20203;-66
2022/11/14 08:09:10;;;;;;;41.60;25.60;;;;;;;;;;5073474;28;20201;-65
2022/11/14 08:11:48;;;;;;;41.13;24.67;;;;;;;;;;5073170;28;20197;-61
2022/11/14 08:14:15;;;;;;;43.63;26.30;;;;;;;;;;5073033;28;20243;-64
2022/11/14 08:16:42;;;;;;;45.15;26.77;;;;;;;;;;5073411;28;20572;-65
2022/11/14 08:19:09;;;;;;;44.97;26.15;;;;;;;;;;5072519;28;20211;-65
2022/11/14 08:21:37;;;;;;;38.83;21.90;;;;;;;;;;5073153;28;20208;-64
2022/11/14 08:24:04;;;;;;;43.63;23.88;;;;;;;;;;5072657;28;20236;-65
2022/11/14 08:26:31;;;;;;;44.55;24.85;;;;;;;;;;5072756;28;20204;-62
2022/11/14 08:28:59;;;;;;;50.63;27.88;;;;;;;;;;5073370;28;20197;-63
2022/11/14 08:31:27;;;;;;;46.67;26.15;;;;;;;;;;5073477;28;20221;-63
2022/11/14 08:33:54;;;;;;;46.33;25.90;;;;;;;;;;5072607;28;20228;-62
2022/11/14 08:36:21;;;;;;;45.35;26.02;;;;;;;;;;5074346;28;20213;-62
2022/11/14 08:38:48;;;;;;;40.85;26.02;;;;;;;;;;5072701;28;20232;-63
2022/11/14 08:41:16;;;;;;;47.88;25.38;;;;;;;;;;5073069;28;20198;-64
2022/11/14 08:43:43;;;;;;;38.85;24.95;;;;;;;;;;5073034;28;20229;-62
2022/11/14 08:46:11;;;;;;;42.88;24.00;;;;;;;;;;5072933;28;20201;-62
2022/11/14 08:48:38;;;;;;;43.70;25.05;;;;;;;;;;5073351;28;20205;-64
2022/11/14 08:51:06;;;;;;;47.55;24.92;;;;;;;;;;5072611;28;20224;-64
2022/11/14 08:53:34;;;;;;;41.80;25.52;;;;;;;;;;5073091;28;20568;-64
2022/11/14 08:56:01;;;;;;;47.08;27.83;;;;;;;;;;5074504;28;20201;-63
2022/11/14 08:58:29;;;;;;;45.00;26.30;;;;;;;;;;5076714;28;20610;-63
2022/11/14 09:01:00;;;;;;;39.67;23.90;;;;;;;;;;5076824;28;20223;-63
2022/11/14 09:03:28;;;;;;;39.00;23.83;;;;;;;;;;5076413;28;20186;-64
2022/11/14 09:05:55;;;;;;;40.78;24.92;;;;;;;;;;5076278;28;20201;-64
2022/11/14 09:08:22;;;;;;;42.28;27.75;;;;;;;;;;5076276;28;20572;-64
2022/11/14 09:10:50;;;;;;;43.70;25.73;;;;;;;;;;5076182;28;20224;-64
2022/11/14 09:13:17;;;;;;;55.53;30.80;;;;;;;;;;5076260;28;20240;-62
2022/11/14 09:15:44;;;;;;;43.83;26.45;;;;;;;;;;5076014;28;20211;-63
2022/11/14 09:18:12;;;;;;;48.95;29.67;;;;;;;;;;5076151;28;20205;-63
2022/11/14 09:20:40;;;;;;;43.85;26.83;;;;;;;;;;5075733;28;20675;-62
2022/11/14 09:23:07;;;;;;;46.70;29.10;;;;;;;;;;5075678;28;20736;-63
2022/11/14 09:25:36;;;;;;;48.92;28.88;;;;;;;;;;5075576;28;20239;-63
2022/11/14 09:28:05;;;;;;;47.58;28.65;;;;;;;;;;5075868;28;20205;-64
2022/11/14 09:30:32;;;;;;;48.30;27.67;;;;;;;;;;5075466;28;20261;-64
2022/11/14 09:33:00;;;;;;;49.13;27.67;;;;;;;;;;5075886;28;20207;-64
2022/11/14 09:35:27;;;;;;;44.15;28.30;;;;;;;;;;5075390;28;20228;-63
2022/11/14 09:38:01;;;;;;;47.60;29.42;;;;;;;;;;5075183;28;20213;-62
2022/11/14 09:40:28;;;;;;;52.15;29.02;;;;;;;;;;5075365;28;20181;-63
2022/11/14 09:43:03;;;;;;;45.60;26.88;;;;;;;;;;5075423;28;20296;-64
2022/11/14 09:45:30;;;;;;;48.78;28.02;;;;;;;;;;5074868;28;20220;-64
2022/11/14 09:48:03;;;;;;;45.08;28.95;;;;;;;;;;5074768;28;20575;-63
2022/11/14 09:50:32;;;;;;;40.83;27.40;;;;;;;;;;5075363;28;20284;-62
2022/11/14 09:53:03;;;;;;;44.92;26.63;;;;;;;;;;5075582;28;20197;-63
2022/11/14 09:55:32;;;;;;;49.45;29.05;;;;;;;;;;5074927;28;20225;-64
2022/11/14 09:57:59;;;;;;;56.40;28.73;;;;;;;;;;5074639;28;20716;-63
2022/11/14 10:00:29;;;;;;;41.65;26.60;;;;;;;;;;5075036;28;20223;-62
2022/11/14 10:03:00;;;;;;;44.25;26.45;;;;;;;;;;5075252;28;20203;-62
2022/11/14 10:05:40;;;;;;;47.13;28.00;;;;;;;;;;5075122;28;20231;-63
2022/11/14 10:08:16;;;;;;;46.80;27.13;;;;;;;;;;5075516;28;20195;-64
2022/11/14 10:10:53;;;;;;;44.33;28.05;;;;;;;;;;5075014;28;20219;-63
2022/11/14 10:13:29;;;;;;;47.28;28.05;;;;;;;;;;5074497;28;20188;-63
2022/11/14 10:15:59;;;;;;;47.88;27.55;;;;;;;;;;5074860;28;20189;-63
2022/11/14 10:18:49;;;;;;;45.08;26.70;;;;;;;;;;5074845;28;20207;-63
2022/11/14 10:21:27;;;;;;;43.28;25.50;;;;;;;;;;5075508;28;20186;-63
2022/11/14 10:26:28;;;;;;;42.58;26.02;;;;;;;;;;5053002;22;20293;-65
2022/11/14 10:29:12;;;;;;;44.30;26.85;;;;;;;;;;5034853;28;20187;-65
2022/11/14 10:31:44;;;;;;;42.60;27.25;;;;;;;;;;5035097;28;20203;-65
2022/11/14 10:34:14;;;;;;;45.65;28.75;;;;;;;;;;5037017;28;20245;-65
2022/11/14 10:36:50;;;;;;;47.03;28.50;;;;;;;;;;5055013;28;20220;-66
2022/11/14 10:39:20;;;;;;;41.78;27.40;;;;;;;;;;5055463;28;20654;-66
2022/11/14 10:41:49;;;;;;;42.78;27.65;;;;;;;;;;5055953;28;20205;-65
2022/11/14 10:44:19;;;;;;;48.95;29.40;;;;;;;;;;5054896;28;20198;-65
2022/11/14 10:46:48;;;;;;;46.35;28.70;;;;;;;;;;5054608;28;20223;-65
2022/11/14 10:49:16;;;;;;;48.40;26.58;;;;;;;;;;5054976;28;20257;-65
2022/11/14 10:51:46;;;;;;;39.95;25.35;;;;;;;;;;5054559;28;20244;-65
2022/11/14 10:54:15;;;;;;;46.30;27.95;;;;;;;;;;5054964;28;20682;-66
2022/11/14 10:56:50;;;;;;;47.25;26.38;;;;;;;;;;5055086;28;20301;-65
2022/11/14 10:59:18;;;;;;;39.40;24.45;;;;;;;;;;5054722;28;20201;-64
2022/11/14 11:01:46;;;;;;;36.67;25.13;;;;;;;;;;5053994;28;20514;-66
2022/11/14 11:04:15;;;;;;;51.00;28.23;;;;;;;;;;5053822;28;20332;-66
2022/11/14 11:06:42;;;;;;;44.83;27.95;;;;;;;;;;5054076;28;20221;-65
2022/11/14 11:11:57;;;;;;;40.47;27.45;;;;;;;;;;5054035;28;20677;-66
2022/11/14 11:14:24;;;;;;;40.03;27.05;;;;;;;;;;5054651;28;20223;-65
2022/11/14 11:17:06;;;;;;;39.53;26.40;;;;;;;;;;5057160;28;20201;-65
2022/11/14 11:19:33;;;;;;;40.03;27.02;;;;;;;;;;5058203;28;20609;-66
2022/11/14 11:22:01;;;;;;;42.83;28.05;;;;;;;;;;5059408;28;20204;-66
2022/11/14 11:24:31;;;;;;;41.58;26.50;;;;;;;;;;5057744;28;20229;-66
2022/11/14 11:27:15;;;;;;;46.05;27.05;;;;;;;;;;5059137;28;20190;-65
2022/11/14 11:29:42;;;;;;;41.15;25.60;;;;;;;;;;5056507;28;20561;-67
2022/11/14 11:32:09;;;;;;;44.30;27.02;;;;;;;;;;5053613;28;20221;-64
2022/11/14 11:34:36;;;;;;;40.83;25.05;;;;;;;;;;5053727;28;20222;-66
2022/11/14 11:37:06;;;;;;;41.20;26.08;;;;;;;;;;5053830;28;20197;-65
2022/11/14 11:39:36;;;;;;;39.38;25.23;;;;;;;;;;5053623;28;20205;-65
2022/11/14 11:42:06;;;;;;;37.70;25.75;;;;;;;;;;5054571;28;20197;-66
2022/11/14 11:44:38;;;;;;;37.10;25.85;;;;;;;;;;5053391;28;20614;-66
2022/11/14 11:47:09;;;;;;;41.47;25.40;;;;;;;;;;5054086;28;20621;-65
2022/11/14 11:49:39;;;;;;;40.10;26.65;;;;;;;;;;5053169;28;20740;-66
2022/11/14 11:52:11;;;;;;;44.95;26.35;;;;;;;;;;5053715;28;20232;-66
2022/11/14 11:54:44;;;;;;;39.67;26.30;;;;;;;;;;5052678;28;20217;-66
2022/11/14 11:57:14;;;;;;;44.60;28.27;;;;;;;;;;5053398;28;20191;-66
2022/11/14 11:59:44;;;;;;;34.22;25.23;;;;;;;;;;5053329;28;20349;-64
2022/11/14 12:02:19;;;;;;;40.65;27.65;;;;;;;;;;5053197;28;20213;-65
2022/11/14 12:04:46;;;;;;;39.63;27.02;;;;;;;;;;5053374;28;20225;-65
2022/11/14 12:07:17;;;;;;;39.28;25.50;;;;;;;;;;5053591;28;20646;-65
2022/11/14 12:09:44;;;;;;;42.13;27.10;;;;;;;;;;5053838;28;20669;-65
2022/11/14 12:12:14;;;;;;;40.10;26.20;;;;;;;;;;5056240;28;20222;-66
2022/11/14 12:14:49;;;;;;;41.90;26.05;;;;;;;;;;5057497;28;20247;-66
2022/11/14 12:17:45;;;;;;;38.10;25.95;;;;;;;;;;5053084;28;20186;-66
2022/11/14 12:20:20;;;;;;;39.75;26.35;;;;;;;;;;5052636;28;20221;-66
2022/11/14 12:23:03;;;;;;;41.70;25.75;;;;;;;;;;5053081;28;20186;-65
2022/11/14 12:25:40;;;;;;;42.38;26.73;;;;;;;;;;5052746;28;20247;-67
2022/11/14 12:28:13;;;;;;;40.25;26.42;;;;;;;;;;5052712;28;20630;-66
2022/11/14 12:30:46;;;;;;;39.65;26.35;;;;;;;;;;5053950;28;20207;-66
2022/11/14 12:33:17;;;;;;;36.30;25.00;;;;;;;;;;5057548;28;20204;-68
2022/11/14 12:35:50;;;;;;;40.03;26.88;;;;;;;;;;5056416;28;20221;-66
2022/11/14 12:38:18;;;;;;;38.40;25.30;;;;;;;;;;5056169;28;20272;-68
2022/11/14 12:40:50;;;;;;;38.60;26.33;;;;;;;;;;5056299;28;20290;-68
2022/11/14 12:43:29;;;;;;;37.20;26.05;;;;;;;;;;5055824;28;20646;-67
2022/11/14 12:45:58;;;;;;;41.17;26.70;;;;;;;;;;5056122;28;20225;-67
2022/11/14 12:48:34;;;;;;;38.90;26.35;;;;;;;;;;5056534;28;20201;-68
2022/11/14 12:51:03;;;;;;;36.33;27.27;;;;;;;;;;5057783;28;20235;-68
2022/11/14 12:53:54;;;;;;;37.83;26.38;;;;;;;;;;5060048;28;20205;-68
2022/11/14 12:56:39;;;;;;;38.53;26.52;;;;;;;;;;5059717;28;20762;-68
2022/11/14 12:59:11;;;;;;;35.65;24.02;;;;;;;;;;5057226;28;20208;-67
2022/11/14 13:01:45;;;;;;;36.20;24.63;;;;;;;;;;5059181;28;20188;-68
2022/11/14 13:04:18;;;;;;;37.47;25.13;;;;;;;;;;5059244;28;20190;-67
2022/11/14 13:06:51;;;;;;;33.00;23.83;;;;;;;;;;5058327;28;20190;-68
2022/11/14 13:09:32;;;;;;;38.65;25.75;;;;;;;;;;5057023;28;20502;-67
2022/11/14 13:23:25;;;;;;;39.53;25.15;;;;;;;;;;5055974;28;20583;-66
2022/11/14 13:26:26;;;;;;;36.55;24.73;;;;;;;;;;5055883;28;20238;-67
2022/11/14 13:28:56;;;;;;;35.53;25.92;;;;;;;;;;5056395;28;20209;-67
2022/11/14 13:31:24;;;;;;;38.00;26.05;;;;;;;;;;5055913;28;20271;-68
2022/11/14 13:33:53;;;;;;;33.63;24.92;;;;;;;;;;5056358;28;20206;-67
2022/11/14 13:36:26;;;;;;;37.42;26.33;;;;;;;;;;5056927;28;20228;-67
2022/11/14 13:39:17;;;;;;;41.65;26.17;;;;;;;;;;5056663;28;20190;-66
2022/11/14 13:41:54;;;;;;;30.75;25.05;;;;;;;;;;5040412;28;20305;-65
2022/11/14 13:44:33;;;;;;;34.55;24.30;;;;;;;;;;5055765;28;20308;-68
2022/11/14 13:47:10;;;;;;;36.17;24.88;;;;;;;;;;5055397;28;20190;-68
2022/11/14 13:49:51;;;;;;;35.97;25.30;;;;;;;;;;5055635;28;20196;-67
2022/11/14 13:52:19;;;;;;;32.28;23.75;;;;;;;;;;5055518;28;20217;-67
2022/11/14 13:54:47;;;;;;;33.67;25.33;;;;;;;;;;5055299;28;20723;-68
2022/11/14 13:57:18;;;;;;;38.53;25.98;;;;;;;;;;5055366;28;20209;-66
2022/11/14 13:59:53;;;;;;;32.22;22.88;;;;;;;;;;5054926;28;20186;-67
2022/11/14 14:02:28;;;;;;;36.17;24.73;;;;;;;;;;5055595;28;20186;-68
2022/11/14 14:05:02;;;;;;;33.25;24.63;;;;;;;;;;5055047;28;20253;-67
2022/11/14 14:07:34;;;;;;;32.53;23.30;;;;;;;;;;5054948;28;20225;-68
2022/11/14 14:10:06;;;;;;;32.38;23.27;;;;;;;;;;5054268;28;20660;-67
2022/11/14 14:12:41;;;;;;;29.80;22.25;;;;;;;;;;5055075;28;20217;-69
2022/11/14 14:15:14;;;;;;;32.33;22.55;;;;;;;;;;5054907;28;20654;-68
2022/11/14 14:17:47;;;;;;;30.13;22.42;;;;;;;;;;5055076;28;20319;-69
2022/11/14 14:20:18;;;;;;;27.20;20.25;;;;;;;;;;5054588;28;20190;-69
2022/11/14 14:22:50;;;;;;;28.05;21.45;;;;;;;;;;5054850;28;20296;-69
2022/11/14 14:25:19;;;;;;;31.20;22.15;;;;;;;;;;5054525;28;20237;-69
2022/11/14 14:27:53;;;;;;;29.02;21.90;;;;;;;;;;5054881;28;20263;-69
2022/11/14 14:30:22;;;;;;;33.97;22.92;;;;;;;;;;5055816;28;20193;-69
2022/11/14 14:33:02;;;;;;;32.28;23.52;;;;;;;;;;5055557;28;20228;-71
2022/11/14 14:35:31;;;;;;;30.02;23.00;;;;;;;;;;5055950;28;20226;-67
2022/11/14 14:37:58;;;;;;;31.17;23.20;;;;;;;;;;5055890;28;20202;-69
2022/11/14 14:40:26;;;;;;;30.95;23.00;;;;;;;;;;5056141;28;20232;-68
2022/11/14 14:42:54;;;;;;;33.78;24.00;;;;;;;;;;5056837;28;20197;-67
2022/11/14 14:45:23;;;;;;;31.60;22.10;;;;;;;;;;5055095;28;20218;-68